Time;durP1;ratioP1;P1;durP2;ratioP2;P2;SDS_P1;SDS_P2;PMS_P1;PMS_P2;Temp;Humidity;BMP_temperature;BMP_pressure;BME280_temperature;BME280_humidity;BME280_pressure;Samples;Min_cycle;Max_cycle;Signal;HPM_P1;HPM_P2
2023/10/18 00:01:00;;;;;;;9.30;6.45;;;6.50;1.00;;;;;;5003810;28;20402;-82
2023/10/18 00:03:30;;;;;;;7.40;6.60;;;6.40;1.00;;;;;;4976167;28;20890;-82
2023/10/18 00:06:08;;;;;;;7.13;6.45;;;6.60;1.00;;;;;;4992782;28;20415;-82
2023/10/18 00:08:33;;;;;;;7.45;6.40;;;6.60;1.00;;;;;;5002819;28;20398;-82
2023/10/18 00:11:00;;;;;;;7.00;6.30;;;6.60;1.00;;;;;;4996113;28;20902;-82
2023/10/18 00:13:25;;;;;;;7.00;6.30;;;6.80;1.00;;;;;;5013742;28;20388;-82
2023/10/18 00:15:53;;;;;;;6.83;6.23;;;6.80;1.00;;;;;;4998382;28;20410;-82
2023/10/18 00:18:20;;;;;;;7.00;6.40;;;6.70;1.00;;;;;;4976666;28;20398;-83
2023/10/18 00:20:46;;;;;;;9.68;7.18;;;6.60;1.00;;;;;;4997981;28;20412;-82
2023/10/18 00:23:12;;;;;;;7.40;6.53;;;6.50;1.00;;;;;;5006060;28;20901;-82
2023/10/18 00:25:37;;;;;;;7.87;7.00;;;6.40;1.00;;;;;;5000944;28;20421;-82
2023/10/18 00:28:03;;;;;;;7.50;6.80;;;6.50;1.00;;;;;;4977093;28;20913;-82
2023/10/18 00:30:30;;;;;;;7.25;6.55;;;6.60;1.00;;;;;;4994419;28;20394;-82
2023/10/18 00:32:56;;;;;;;7.10;6.40;;;6.70;1.00;;;;;;4976605;28;20422;-82
2023/10/18 00:35:36;;;;;;;7.30;6.60;;;6.80;1.00;;;;;;4993958;28;20409;-82
2023/10/18 00:38:03;;;;;;;7.85;7.15;;;6.60;1.00;;;;;;4976850;28;20398;-83
2023/10/18 00:43:03;;;;;;;7.68;6.97;;;6.40;1.00;;;;;;4993658;28;20391;-83
2023/10/18 00:45:29;;;;;;;6.85;5.90;;;6.50;1.00;;;;;;5004238;28;20409;-82
2023/10/18 00:47:57;;;;;;;7.40;6.65;;;6.60;1.00;;;;;;5000893;28;20536;-82
2023/10/18 00:50:27;;;;;;;6.35;5.80;;;6.60;1.00;;;;;;4995287;28;20425;-82
2023/10/18 00:52:53;;;;;;;7.65;6.30;;;6.60;1.00;;;;;;4977401;28;20417;-82
2023/10/18 00:55:19;;;;;;;7.30;6.70;;;6.50;1.00;;;;;;4977610;28;20434;-82
2023/10/18 00:57:45;;;;;;;7.57;6.97;;;6.40;1.00;;;;;;4994656;28;20433;-82
2023/10/18 01:00:18;;;;;;;6.73;6.13;;;6.30;1.00;;;;;;4976484;28;20431;-82
2023/10/18 01:02:45;;;;;;;7.60;6.80;;;6.10;1.00;;;;;;4993394;28;20394;-82
2023/10/18 01:05:11;;;;;;;7.80;7.10;;;6.40;1.00;;;;;;4979734;28;20414;-82
2023/10/18 01:07:38;;;;;;;8.32;7.53;;;6.60;1.00;;;;;;4975402;28;20989;-82
2023/10/18 01:10:07;;;;;;;6.85;6.25;;;6.70;1.00;;;;;;4976472;28;20477;-82
2023/10/18 01:12:44;;;;;;;8.40;6.40;;;6.50;1.00;;;;;;4976019;28;20508;-82
2023/10/18 01:15:12;;;;;;;6.65;6.05;;;6.50;1.00;;;;;;4976511;28;20390;-82
2023/10/18 01:17:43;;;;;;;8.30;6.90;;;6.40;1.00;;;;;;4976991;28;20474;-83
2023/10/18 01:22:53;;;;;;;8.07;6.90;;;6.30;1.00;;;;;;4997305;28;20538;-82
2023/10/18 01:25:19;;;;;;;8.15;6.78;;;6.20;1.00;;;;;;4979329;28;20414;-81
2023/10/18 01:27:45;;;;;;;7.32;6.63;;;6.10;1.00;;;;;;4997111;28;20394;-82
2023/10/18 01:30:16;;;;;;;7.20;6.60;;;6.20;1.00;;;;;;5003761;28;20417;-82
2023/10/18 01:32:42;;;;;;;6.80;6.17;;;6.30;1.00;;;;;;4996941;28;20474;-81
2023/10/18 01:35:08;;;;;;;7.95;6.30;;;6.40;1.00;;;;;;5006707;28;20413;-82
2023/10/18 01:37:34;;;;;;;6.97;6.07;;;6.40;1.00;;;;;;4982470;28;20410;-82
2023/10/18 01:40:20;;;;;;;7.70;6.75;;;6.40;1.00;;;;;;5005773;28;20398;-82
2023/10/18 01:42:45;;;;;;;6.90;6.30;;;6.30;1.00;;;;;;5005929;28;20410;-82
2023/10/18 01:45:11;;;;;;;6.80;6.10;;;6.40;1.00;;;;;;4979981;28;20414;-82
2023/10/18 01:47:40;;;;;;;7.07;6.38;;;6.40;1.00;;;;;;5006150;28;20384;-82
2023/10/18 01:50:08;;;;;;;7.13;6.43;;;6.20;1.00;;;;;;4991010;28;20432;-82
2023/10/18 01:52:37;;;;;;;7.00;6.30;;;6.20;1.00;;;;;;4979737;28;20409;-82
2023/10/18 01:55:06;;;;;;;6.80;6.10;;;6.30;1.00;;;;;;4994937;23;20428;-87
2023/10/18 01:57:32;;;;;;;7.15;6.55;;;6.10;1.00;;;;;;5002033;28;20399;-86
2023/10/18 01:59:58;;;;;;;7.70;7.00;;;5.90;1.00;;;;;;5005936;28;20793;-85
2023/10/18 02:02:23;;;;;;;7.22;6.55;;;6.00;1.00;;;;;;4993390;28;20388;-87
2023/10/18 02:04:49;;;;;;;7.37;6.60;;;6.10;1.00;;;;;;5001110;28;20415;-86
2023/10/18 02:07:17;;;;;;;9.17;6.93;;;6.10;1.00;;;;;;4977536;28;20401;-87
2023/10/18 02:09:49;;;;;;;7.78;6.97;;;5.90;1.00;;;;;;4993775;28;20391;-86
2023/10/18 02:12:21;;;;;;;7.30;6.60;;;6.00;1.00;;;;;;4994129;28;20869;-86
2023/10/18 02:14:48;;;;;;;7.27;6.63;;;6.00;1.00;;;;;;4993581;28;20402;-85
2023/10/18 02:17:14;;;;;;;7.30;6.60;;;5.90;1.00;;;;;;4976132;28;20894;-86
2023/10/18 02:19:39;;;;;;;8.10;7.32;;;5.80;1.00;;;;;;4976297;28;20392;-86
2023/10/18 02:22:07;;;;;;;7.10;6.40;;;5.90;1.00;;;;;;4993448;28;20401;-86
2023/10/18 02:24:34;;;;;;;7.00;6.40;;;5.90;1.00;;;;;;4975643;28;20421;-86
2023/10/18 02:27:00;;;;;;;8.20;7.32;;;5.90;1.00;;;;;;4993855;28;20391;-87
2023/10/18 02:29:27;;;;;;;7.30;6.60;;;5.90;1.00;;;;;;4974972;28;20754;-85
2023/10/18 02:31:57;;;;;;;7.82;7.13;;;5.90;1.00;;;;;;4975982;28;20398;-86
2023/10/18 02:34:25;;;;;;;7.40;6.70;;;6.00;1.00;;;;;;4995070;28;20861;-86
2023/10/18 02:36:52;;;;;;;7.95;7.15;;;6.10;1.00;;;;;;5003951;28;20385;-87
2023/10/18 02:39:27;;;;;;;7.30;6.60;;;6.10;1.00;;;;;;5011755;28;20471;-86
2023/10/18 02:41:55;;;;;;;8.10;6.82;;;6.10;1.00;;;;;;5013356;28;20924;-86
2023/10/18 02:44:24;;;;;;;7.75;6.75;;;6.30;1.00;;;;;;5006984;28;20422;-86
2023/10/18 02:46:54;;;;;;;6.87;6.17;;;6.40;1.00;;;;;;4990738;28;20406;-86
2023/10/18 02:49:23;;;;;;;8.82;6.53;;;6.40;1.00;;;;;;4989361;28;20526;-85
2023/10/18 02:51:50;;;;;;;7.80;7.00;;;6.20;1.00;;;;;;4993672;28;20759;-86
2023/10/18 02:56:52;;;;;;;7.32;6.72;;;6.40;1.00;;;;;;4992846;28;20407;-85
2023/10/18 02:59:21;;;;;;;7.70;7.00;;;6.50;1.00;;;;;;4975254;28;20507;-85
2023/10/18 03:01:50;;;;;;;7.40;6.70;;;6.50;1.00;;;;;;4975353;28;20406;-87
2023/10/18 03:04:18;;;;;;;7.30;6.60;;;6.30;1.00;;;;;;4993292;28;20427;-87
2023/10/18 03:06:45;;;;;;;8.75;7.80;;;6.30;1.00;;;;;;4975739;28;20393;-88
2023/10/18 03:09:26;;;;;;;7.88;7.18;;;6.30;1.00;;;;;;4975515;28;20414;-86
2023/10/18 03:11:54;;;;;;;8.35;6.80;;;6.60;1.00;;;;;;4975295;28;20402;-86
2023/10/18 03:14:23;;;;;;;7.70;6.90;;;6.70;1.00;;;;;;4993096;28;20417;-86
2023/10/18 03:16:49;;;;;;;7.40;6.53;;;6.70;1.00;;;;;;4975452;28;20390;-86
2023/10/18 03:19:17;;;;;;;6.80;6.20;;;6.60;1.00;;;;;;4975576;28;20421;-85
2023/10/18 03:21:48;;;;;;;7.20;6.50;;;6.60;1.00;;;;;;4992770;28;20775;-87
2023/10/18 03:24:14;;;;;;;6.93;6.23;;;6.60;1.00;;;;;;4992957;28;20882;-85
2023/10/18 03:26:41;;;;;;;8.25;7.45;;;6.60;1.00;;;;;;4979277;28;20493;-85
2023/10/18 03:29:11;;;;;;;7.18;6.53;;;6.80;1.00;;;;;;4991565;28;20466;-86
2023/10/18 03:31:41;;;;;;;7.50;6.80;;;6.70;1.00;;;;;;4976554;28;20414;-86
2023/10/18 03:34:19;;;;;;;7.10;6.50;;;6.80;1.00;;;;;;4981025;28;20489;-86
2023/10/18 03:36:48;;;;;;;7.10;6.40;;;6.60;1.00;;;;;;4976942;28;20410;-86
2023/10/18 03:39:24;;;;;;;6.80;6.20;;;6.80;1.00;;;;;;4976208;28;20430;-86
2023/10/18 03:41:50;;;;;;;7.35;6.65;;;6.70;1.00;;;;;;4992623;28;20767;-86
2023/10/18 03:44:21;;;;;;;7.10;6.50;;;6.80;1.00;;;;;;4975955;28;20387;-85
2023/10/18 03:46:47;;;;;;;7.70;7.00;;;6.70;1.00;;;;;;4992913;28;20395;-86
2023/10/18 03:49:22;;;;;;;8.43;6.75;;;6.70;1.00;;;;;;4975138;28;20409;-86
2023/10/18 03:51:50;;;;;;;7.85;6.90;;;7.10;1.00;;;;;;4975733;28;21143;-85
2023/10/18 03:54:15;;;;;;;6.93;6.32;;;6.90;1.00;;;;;;4975552;28;20787;-85
2023/10/18 03:56:45;;;;;;;7.53;6.83;;;6.80;1.00;;;;;;4992795;28;20398;-86
2023/10/18 03:59:19;;;;;;;8.43;6.93;;;7.00;1.00;;;;;;4975168;28;20397;-86
2023/10/18 04:02:04;;;;;;;8.50;7.70;;;6.70;1.00;;;;;;4975240;28;20482;-87
2023/10/18 04:04:36;;;;;;;9.30;6.80;;;6.60;1.00;;;;;;4975087;28;20862;-88
2023/10/18 04:07:12;;;;;;;7.40;6.70;;;6.70;1.00;;;;;;4992312;28;20398;-87
2023/10/18 04:09:50;;;;;;;7.90;6.40;;;6.70;1.00;;;;;;4975798;28;20473;-86
2023/10/18 04:12:19;;;;;;;7.57;6.88;;;6.70;1.00;;;;;;4992540;28;20814;-87
2023/10/18 04:15:19;;;;;;;6.90;6.30;;;6.70;1.00;;;;;;4994852;28;20503;-84
2023/10/18 04:17:44;;;;;;;8.63;6.80;;;6.80;1.00;;;;;;4977550;28;20407;-85
2023/10/18 04:20:22;;;;;;;8.70;7.10;;;6.60;1.00;;;;;;4980815;28;20473;-87
2023/10/18 04:22:51;;;;;;;7.00;6.30;;;6.60;1.00;;;;;;4978162;28;20932;-86
2023/10/18 04:25:25;;;;;;;7.50;6.80;;;6.50;1.00;;;;;;4978455;28;20784;-88
2023/10/18 04:27:57;;;;;;;8.20;6.90;;;6.60;1.00;;;;;;4977193;28;20445;-87
2023/10/18 04:30:23;;;;;;;7.97;7.22;;;6.60;1.00;;;;;;4969067;28;20395;-87
2023/10/18 04:33:12;;;;;;;8.70;7.80;;;6.80;1.00;;;;;;4996420;28;20510;-86
2023/10/18 04:35:52;;;;;;;14.10;8.15;;;7.00;1.00;;;;;;4973755;28;20406;-87
2023/10/18 04:38:22;;;;;;;9.63;8.20;;;7.10;1.00;;;;;;4976644;28;20396;-86
2023/10/18 04:40:57;;;;;;;9.80;8.48;;;7.00;1.00;;;;;;4990207;28;20436;-87
2023/10/18 04:43:27;;;;;;;9.07;8.05;;;7.10;1.00;;;;;;4987800;28;20398;-87
2023/10/18 04:45:57;;;;;;;9.95;8.95;;;7.10;1.00;;;;;;4992710;28;20479;-87
2023/10/18 04:48:59;;;;;;;10.27;8.90;;;7.00;1.00;;;;;;4965773;28;20465;-86
2023/10/18 04:51:08;;;;;;;11.27;9.55;;;7.10;1.00;;;;;;4981120;28;20412;-86
2023/10/18 04:53:34;;;;;;;9.93;8.97;;;6.90;1.00;;;;;;4992546;28;20398;-87
2023/10/18 04:56:02;;;;;;;10.30;9.30;;;6.70;1.00;;;;;;5001786;28;20771;-86
2023/10/18 04:58:29;;;;;;;9.80;8.90;;;6.90;1.00;;;;;;4987670;28;20424;-86
2023/10/18 05:00:59;;;;;;;10.20;9.20;;;6.90;1.00;;;;;;4989943;28;20474;-86
2023/10/18 05:03:30;;;;;;;10.13;9.00;;;7.10;1.00;;;;;;4988412;28;20392;-86
2023/10/18 05:05:56;;;;;;;11.18;9.90;;;7.20;1.00;;;;;;4972794;28;20423;-86
2023/10/18 05:08:23;;;;;;;10.55;9.55;;;7.10;1.00;;;;;;4980056;28;20410;-87
2023/10/18 05:10:52;;;;;;;9.95;8.85;;;7.00;1.00;;;;;;4984599;28;20463;-86
2023/10/18 05:13:33;;;;;;;11.32;9.38;;;6.90;1.00;;;;;;4968612;28;20757;-87
2023/10/18 05:16:04;;;;;;;11.20;9.55;;;6.90;1.00;;;;;;4985164;28;20836;-86
2023/10/18 05:18:30;;;;;;;9.93;8.93;;;7.00;1.00;;;;;;4963779;28;20437;-86
2023/10/18 05:20:57;;;;;;;9.80;8.90;;;6.90;1.00;;;;;;4996113;28;20402;-86
2023/10/18 05:23:25;;;;;;;10.05;8.98;;;5.60;1.00;;;;;;4978860;28;20406;-86
2023/10/18 05:26:17;;;;;;;10.20;9.20;;;6.80;1.00;;;;;;4990478;28;20425;-86
2023/10/18 05:41:59;;;;;;;10.93;9.82;;;7.00;1.00;;;;;;4984557;28;20413;-86
2023/10/18 05:44:27;;;;;;;10.10;8.98;;;7.10;1.00;;;;;;4968772;28;20447;-87
2023/10/18 05:46:53;;;;;;;9.40;8.50;;;7.10;1.00;;;;;;4990683;28;20399;-86
2023/10/18 05:49:25;;;;;;;9.70;8.70;;;6.90;1.00;;;;;;4980313;28;20449;-86
2023/10/18 05:54:35;;;;;;;9.93;9.02;;;6.90;1.00;;;;;;5004477;28;20439;-85
2023/10/18 05:57:00;;;;;;;10.30;9.13;;;6.90;1.00;;;;;;4984547;28;20476;-86
2023/10/18 05:59:32;;;;;;;9.48;8.48;;;7.00;1.00;;;;;;4982804;28;20459;-86
2023/10/18 06:02:09;;;;;;;10.48;9.40;;;7.00;1.00;;;;;;5000354;28;20410;-87
2023/10/18 06:04:42;;;;;;;10.70;8.50;;;7.00;1.00;;;;;;4998554;28;20406;-86
2023/10/18 06:07:12;;;;;;;8.85;8.00;;;7.00;1.00;;;;;;4997714;28;20494;-86
2023/10/18 06:09:58;;;;;;;9.68;8.68;;;7.10;1.00;;;;;;4998005;28;20415;-86
2023/10/18 06:12:27;;;;;;;13.20;10.02;;;6.90;1.00;;;;;;4995884;28;20423;-86
2023/10/18 06:14:53;;;;;;;9.68;8.75;;;7.20;1.00;;;;;;4992257;28;20786;-85
2023/10/18 06:17:25;;;;;;;12.23;8.85;;;7.20;1.00;;;;;;4995474;28;20410;-85
2023/10/18 06:19:51;;;;;;;11.68;9.70;;;7.40;1.00;;;;;;5006919;28;20392;-86
2023/10/18 06:22:50;;;;;;;10.38;9.27;;;7.20;1.00;;;;;;5011581;28;20460;-86
2023/10/18 06:25:24;;;;;;;10.00;8.98;;;7.20;1.00;;;;;;5013405;28;20447;-86
2023/10/18 06:27:50;;;;;;;9.60;8.70;;;7.50;1.00;;;;;;5007890;28;20409;-87
2023/10/18 06:30:17;;;;;;;10.85;9.75;;;7.90;1.00;;;;;;4996888;28;20414;-87
2023/10/18 06:32:44;;;;;;;10.00;9.10;;;7.60;1.00;;;;;;5000478;28;20391;-87
2023/10/18 06:35:26;;;;;;;9.60;8.70;;;7.50;1.00;;;;;;5022467;28;20415;-86
2023/10/18 06:37:52;;;;;;;10.30;9.20;;;9.00;1.00;;;;;;5013656;28;20409;-87
2023/10/18 06:41:00;;;;;;;11.18;10.07;;;7.40;1.00;;;;;;4996749;28;20410;-87
2023/10/18 06:43:08;;;;;;;10.65;9.55;;;7.60;1.00;;;;;;4989727;28;20474;-87
2023/10/18 06:45:37;;;;;;;11.50;10.30;;;7.80;1.00;;;;;;4981835;28;20413;-86
2023/10/18 06:48:03;;;;;;;10.10;9.10;;;8.00;1.00;;;;;;4989248;28;20390;-86
2023/10/18 06:50:30;;;;;;;11.43;9.90;;;8.00;1.00;;;;;;4988934;28;20378;-87
2023/10/18 06:52:58;;;;;;;10.40;9.30;;;8.00;1.00;;;;;;4975308;28;20467;-86
2023/10/18 06:55:35;;;;;;;11.15;10.05;;;8.00;1.00;;;;;;4960197;28;20483;-86
2023/10/18 06:58:12;;;;;;;11.95;10.10;;;8.00;1.00;;;;;;4984352;28;20463;-85
2023/10/18 07:00:43;;;;;;;11.25;10.15;;;7.80;1.00;;;;;;4970402;28;20406;-86
2023/10/18 07:03:16;;;;;;;12.45;11.25;;;7.70;1.00;;;;;;4972535;28;20433;-86
2023/10/18 07:05:52;;;;;;;12.82;11.10;;;7.50;1.00;;;;;;4969635;28;20534;-87
2023/10/18 07:08:33;;;;;;;12.30;11.02;;;7.90;1.00;;;;;;4973773;28;20796;-86
2023/10/18 07:11:01;;;;;;;13.60;11.20;;;7.40;1.00;;;;;;4974825;28;20402;-86
2023/10/18 07:13:34;;;;;;;12.48;10.95;;;7.20;1.00;;;;;;4981709;28;20422;-86
2023/10/18 07:16:16;;;;;;;11.93;10.70;;;8.30;1.00;;;;;;4979083;28;20399;-86
2023/10/18 07:18:45;;;;;;;13.68;11.55;;;7.50;1.00;;;;;;4959725;28;20919;-86
2023/10/18 07:21:18;;;;;;;14.68;11.32;;;7.90;1.00;;;;;;4972129;28;20400;-88
2023/10/18 07:23:46;;;;;;;13.60;11.27;;;7.50;1.00;;;;;;4960325;28;20423;-86
2023/10/18 07:26:14;;;;;;;14.93;12.40;;;7.50;1.00;;;;;;4968965;28;20920;-86
2023/10/18 07:28:41;;;;;;;14.80;13.20;;;9.20;1.00;;;;;;4976796;28;20562;-86
2023/10/18 07:31:09;;;;;;;12.52;11.23;;;7.60;1.00;;;;;;4977341;28;20883;-86
2023/10/18 07:33:41;;;;;;;12.25;11.05;;;7.70;1.00;;;;;;4976409;28;20406;-86
2023/10/18 07:36:08;;;;;;;13.52;11.50;;;7.80;1.00;;;;;;4976674;28;20394;-86
2023/10/18 07:38:37;;;;;;;13.05;11.75;;;8.00;1.00;;;;;;4976313;28;20402;-86
2023/10/18 07:41:04;;;;;;;14.45;12.20;;;7.80;1.00;;;;;;4992937;28;20441;-86
2023/10/18 07:43:32;;;;;;;15.65;12.80;;;8.60;1.00;;;;;;4965030;28;20483;-86
2023/10/18 07:45:58;;;;;;;15.20;12.77;;;7.80;1.00;;;;;;4991679;28;20405;-86
2023/10/18 07:48:27;;;;;;;12.68;11.38;;;8.50;1.00;;;;;;4994314;28;20390;-86
2023/10/18 07:50:54;;;;;;;13.05;11.65;;;8.00;1.00;;;;;;4977533;28;20774;-85
2023/10/18 07:53:22;;;;;;;12.20;11.00;;;8.00;1.00;;;;;;4992306;28;20526;-86
2023/10/18 07:55:53;;;;;;;13.88;12.13;;;8.00;1.00;;;;;;4975673;28;20433;-86
2023/10/18 07:58:22;;;;;;;12.40;11.10;;;7.80;1.00;;;;;;4974964;28;20407;-86
2023/10/18 08:01:12;;;;;;;15.93;12.95;;;7.90;1.00;;;;;;4978559;28;20454;-86
2023/10/18 08:03:38;;;;;;;13.38;12.00;;;8.30;1.00;;;;;;4976738;28;20402;-86
2023/10/18 08:06:15;;;;;;;13.07;11.67;;;10.00;1.00;;;;;;4975020;28;20437;-86
2023/10/18 08:08:41;;;;;;;13.60;12.27;;;7.90;1.00;;;;;;4986035;28;20404;-85
2023/10/18 08:11:11;;;;;;;16.80;15.00;;;10.50;1.00;;;;;;4981075;28;20483;-86
2023/10/18 08:13:46;;;;;;;13.20;11.90;;;8.20;1.00;;;;;;4994081;28;20433;-87
2023/10/18 08:16:19;;;;;;;17.52;13.25;;;7.80;1.00;;;;;;4979904;28;20440;-87
2023/10/18 08:18:59;;;;;;;18.15;13.95;;;7.10;1.00;;;;;;4995012;28;20393;-87
2023/10/18 08:21:40;;;;;;;14.68;11.98;;;8.20;1.00;;;;;;4995257;28;20425;-86
2023/10/18 08:24:18;;;;;;;16.15;12.30;;;8.30;1.00;;;;;;4994414;28;20410;-86
2023/10/18 08:26:46;;;;;;;12.57;11.25;;;8.60;1.00;;;;;;4976702;28;20549;-86
2023/10/18 08:29:16;;;;;;;144.43;42.80;;;8.40;1.00;;;;;;5000084;28;20774;-87
2023/10/18 08:31:48;;;;;;;16.30;12.00;;;8.70;1.00;;;;;;4988903;28;20378;-86
2023/10/18 08:34:23;;;;;;;13.20;11.48;;;8.60;1.00;;;;;;4982234;28;20426;-86
2023/10/18 08:37:01;;;;;;;13.85;12.32;;;9.10;1.00;;;;;;4979811;28;20390;-86
2023/10/18 08:39:27;;;;;;;14.93;12.25;;;8.50;1.00;;;;;;4996672;28;20477;-86
2023/10/18 08:42:13;;;;;;;19.73;13.13;;;8.10;1.00;;;;;;4980129;28;20398;-87
2023/10/18 08:44:39;;;;;;;13.43;11.48;;;8.90;1.00;;;;;;4979460;28;20461;-87
2023/10/18 08:49:55;;;;;;;20.05;13.38;;;8.90;1.00;;;;;;5000495;28;20485;-87
2023/10/18 08:52:28;;;;;;;12.73;11.27;;;8.90;1.00;;;;;;4979648;28;20395;-87
2023/10/18 08:54:55;;;;;;;13.85;11.95;;;9.00;1.00;;;;;;4996853;28;20756;-86
2023/10/18 08:57:36;;;;;;;12.50;11.20;;;9.10;1.00;;;;;;4984041;28;20928;-87
2023/10/18 09:00:35;;;;;;;16.55;12.32;;;8.70;1.00;;;;;;4980884;28;20403;-87
2023/10/18 09:02:51;;;;;;;15.25;12.00;;;9.30;1.00;;;;;;4997213;28;20828;-87
2023/10/18 09:05:22;;;;;;;16.25;12.80;;;10.60;1.00;;;;;;4985766;28;20428;-86
2023/10/18 09:07:50;;;;;;;15.88;12.65;;;10.80;1.00;;;;;;4997077;28;20496;-85
2023/10/18 09:13:33;;;;;;;15.55;12.90;;;9.10;1.00;;;;;;4995109;28;20798;-86
2023/10/18 09:18:20;;;;;;;14.93;12.83;;;8.50;1.00;;;;;;4997223;28;20418;-85
2023/10/18 09:20:46;;;;;;;17.13;13.15;;;8.80;1.00;;;;;;4995392;28;20434;-86
2023/10/18 09:23:20;;;;;;;13.95;12.55;;;8.90;1.00;;;;;;4989771;28;20388;-87
2023/10/18 09:25:49;;;;;;;17.23;13.50;;;8.90;1.00;;;;;;5003378;28;20422;-86
2023/10/18 09:28:35;;;;;;;13.17;11.77;;;9.00;1.00;;;;;;5003200;28;20461;-87
2023/10/18 09:31:09;;;;;;;14.90;13.18;;;9.10;1.00;;;;;;4986758;28;20414;-85
2023/10/18 09:33:36;;;;;;;13.10;11.90;;;9.10;1.00;;;;;;4997617;28;20406;-86
2023/10/18 09:36:02;;;;;;;14.05;12.55;;;8.90;1.00;;;;;;4979401;28;20390;-86
2023/10/18 09:38:43;;;;;;;14.40;12.90;;;9.30;1.00;;;;;;4979259;28;20387;-86
2023/10/18 09:41:09;;;;;;;14.35;12.30;;;9.20;1.00;;;;;;4979155;28;20405;-86
2023/10/18 09:43:38;;;;;;;14.67;13.17;;;9.70;1.00;;;;;;4995508;28;20407;-86
2023/10/18 09:46:10;;;;;;;16.15;14.45;;;9.40;1.00;;;;;;4995426;28;20422;-86
2023/10/18 09:48:41;;;;;;;13.75;12.30;;;10.00;1.00;;;;;;4960259;28;20400;-86
2023/10/18 09:51:08;;;;;;;15.20;11.80;;;10.10;1.00;;;;;;4976202;28;20460;-87
2023/10/18 09:53:50;;;;;;;13.25;11.98;;;9.70;1.00;;;;;;4978361;28;20383;-87
2023/10/18 09:56:53;;;;;;;15.00;13.10;;;9.80;1.00;;;;;;4977751;28;20759;-86
2023/10/18 09:59:16;;;;;;;13.00;11.73;;;9.90;1.00;;;;;;4991732;28;20445;-87
2023/10/18 10:04:13;;;;;;;13.85;12.45;;;9.70;1.00;;;;;;4998409;28;20907;-87
2023/10/18 10:06:46;;;;;;;14.98;13.48;;;10.00;1.00;;;;;;4971721;28;20412;-87
2023/10/18 10:09:15;;;;;;;13.00;11.70;;;9.90;1.00;;;;;;5002584;28;20395;-87
2023/10/18 10:11:46;;;;;;;14.55;13.05;;;10.30;1.00;;;;;;5014194;28;20398;-86
2023/10/18 10:14:15;;;;;;;13.80;12.40;;;10.50;1.00;;;;;;5002104;28;20418;-87
2023/10/18 10:16:49;;;;;;;14.88;12.50;;;10.30;1.00;;;;;;5002303;28;20405;-86
2023/10/18 10:19:19;;;;;;;12.52;11.23;;;10.30;1.00;;;;;;5002325;28;20391;-87
2023/10/18 10:21:44;;;;;;;13.82;12.32;;;10.30;1.00;;;;;;5002050;28;20462;-88
2023/10/18 10:27:27;;;;;;;15.07;13.15;;;10.20;1.00;;;;;;4985669;28;20430;-88
2023/10/18 10:29:58;;;;;;;14.52;13.00;;;9.80;1.00;;;;;;5001891;28;20386;-86
2023/10/18 10:32:24;;;;;;;15.50;13.43;;;10.50;1.00;;;;;;5013261;28;20406;-88
2023/10/18 10:35:16;;;;;;;14.48;12.98;;;10.50;1.00;;;;;;4983810;28;20472;-86
2023/10/18 10:37:52;;;;;;;14.80;13.30;;;10.20;1.00;;;;;;4985624;28;20394;-87
2023/10/18 10:43:03;;;;;;;16.88;13.82;;;10.70;1.00;;;;;;4996041;28;20400;-87
2023/10/18 10:45:38;;;;;;;16.10;14.50;;;10.50;1.00;;;;;;4978206;28;20441;-87
2023/10/18 10:48:28;;;;;;;15.32;13.55;;;10.20;1.00;;;;;;4978917;28;20390;-87
2023/10/18 10:53:48;;;;;;;15.00;13.50;;;10.10;1.00;;;;;;4995395;28;20393;-87
2023/10/18 10:56:32;;;;;;;14.70;13.20;;;10.60;1.00;;;;;;4977758;28;20783;-88
2023/10/18 10:59:03;;;;;;;16.38;13.27;;;10.00;1.00;;;;;;4981095;28;20402;-87
2023/10/18 11:07:23;;;;;;;15.73;13.93;;;10.60;1.00;;;;;;5000201;28;20380;-87
2023/10/18 11:09:51;;;;;;;15.15;13.55;;;10.60;1.00;;;;;;4998031;28;20398;-87
2023/10/18 11:12:17;;;;;;;16.90;14.27;;;10.10;1.00;;;;;;4990619;28;20470;-88
2023/10/18 11:14:44;;;;;;;14.57;13.07;;;13.10;1.00;;;;;;4981127;28;20500;-87
2023/10/18 11:20:30;;;;;;;17.65;15.10;;;10.00;1.00;;;;;;4996280;28;20763;-88
2023/10/18 11:22:41;;;;;;;14.63;13.00;;;10.50;1.00;;;;;;4991220;28;20908;-87
2023/10/18 11:25:09;;;;;;;15.20;13.60;;;10.60;1.00;;;;;;4983046;28;20512;-88
2023/10/18 11:27:37;;;;;;;17.70;14.10;;;10.90;1.00;;;;;;4982794;28;20446;-85
2023/10/18 11:30:15;;;;;;;15.15;13.75;;;9.90;1.00;;;;;;4978172;28;20798;-88
2023/10/18 11:32:43;;;;;;;15.35;13.50;;;10.90;1.00;;;;;;4975846;28;20421;-87
2023/10/18 11:35:09;;;;;;;14.85;13.38;;;10.60;1.00;;;;;;4976838;28;20382;-87
2023/10/18 11:37:39;;;;;;;126.20;44.10;;;10.50;1.00;;;;;;4976673;28;20406;-88
2023/10/18 11:40:21;;;;;;;15.93;12.98;;;10.60;1.00;;;;;;4957168;28;20400;-87
2023/10/18 11:43:10;;;;;;;16.80;12.93;;;11.00;1.00;;;;;;4957550;28;20434;-87
2023/10/18 11:45:37;;;;;;;14.32;12.93;;;10.50;1.00;;;;;;4973243;28;20421;-87
2023/10/18 11:48:09;;;;;;;12.93;11.30;;;10.90;1.00;;;;;;4982549;28;20403;-88
2023/10/18 11:50:40;;;;;;;12.38;11.18;;;11.10;1.00;;;;;;4994463;28;20401;-88
2023/10/18 11:53:15;;;;;;;18.48;12.90;;;11.60;1.00;;;;;;5009833;28;20437;-87
2023/10/18 11:55:58;;;;;;;13.30;11.32;;;10.60;1.00;;;;;;4979556;28;20407;-88
2023/10/18 11:58:28;;;;;;;12.20;11.00;;;10.10;1.00;;;;;;4979579;28;20783;-86
2023/10/18 12:01:07;;;;;;;10.75;9.65;;;10.90;1.00;;;;;;4979526;28;20398;-87
2023/10/18 12:03:38;;;;;;;14.38;10.30;;;11.30;1.00;;;;;;4979962;28;20398;-88
2023/10/18 12:06:04;;;;;;;13.70;10.40;;;11.30;1.00;;;;;;4977309;28;20406;-87
2023/10/18 12:08:47;;;;;;;13.57;12.30;;;12.20;1.00;;;;;;4975708;28;20398;-87
2023/10/18 12:11:14;;;;;;;10.02;9.13;;;11.80;1.00;;;;;;4974679;28;20399;-87
2023/10/18 12:13:40;;;;;;;10.63;9.52;;;12.20;1.00;;;;;;4996523;28;20386;-88
2023/10/18 12:16:08;;;;;;;11.63;10.40;;;12.20;1.00;;;;;;4994701;28;20417;-87
2023/10/18 12:18:35;;;;;;;10.30;9.30;;;12.10;1.00;;;;;;4978489;28;20430;-88
2023/10/18 12:21:01;;;;;;;9.65;8.70;;;12.30;1.00;;;;;;4993984;28;20406;-87
2023/10/18 12:23:26;;;;;;;10.10;9.20;;;12.20;1.00;;;;;;4977626;28;20453;-88
2023/10/18 12:25:52;;;;;;;9.93;8.93;;;12.20;1.00;;;;;;4978776;28;20505;-88
2023/10/18 12:28:19;;;;;;;10.77;9.67;;;11.60;1.00;;;;;;4983439;28;20402;-88
2023/10/18 12:30:51;;;;;;;13.35;11.30;;;12.20;1.00;;;;;;4983519;28;20391;-87
2023/10/18 12:33:26;;;;;;;13.63;12.32;;;12.60;1.00;;;;;;4983896;28;20394;-87
2023/10/18 12:35:53;;;;;;;15.93;14.25;;;12.00;1.00;;;;;;4979584;28;20406;-86
2023/10/18 12:38:31;;;;;;;16.95;15.15;;;11.70;1.00;;;;;;4978546;28;21143;-86
2023/10/18 12:43:44;;;;;;;17.13;15.02;;;11.00;1.00;;;;;;4994161;28;20402;-86
2023/10/18 12:46:16;;;;;;;18.45;16.35;;;10.50;1.00;;;;;;4993873;28;20887;-86
2023/10/18 12:48:45;;;;;;;17.88;15.98;;;11.00;1.00;;;;;;4977845;28;20872;-86
2023/10/18 12:51:14;;;;;;;17.87;15.97;;;10.90;1.00;;;;;;4975607;28;20411;-86
2023/10/18 12:56:25;;;;;;;18.20;16.30;;;10.00;1.00;;;;;;4992534;28;20411;-87
2023/10/18 13:01:32;;;;;;;20.70;17.88;;;10.20;1.00;;;;;;4992079;28;20394;-86
2023/10/18 13:04:00;;;;;;;21.30;17.52;;;10.60;1.00;;;;;;4991891;28;20807;-87
2023/10/18 13:06:35;;;;;;;19.52;17.52;;;11.00;1.00;;;;;;4976490;28;20410;-87
2023/10/18 13:09:29;;;;;;;17.70;16.00;;;11.20;1.00;;;;;;4993832;28;20933;-86
2023/10/18 13:14:29;;;;;;;20.23;17.73;;;11.00;1.00;;;;;;4994423;28;20990;-86
2023/10/18 13:16:56;;;;;;;21.48;18.92;;;10.10;1.00;;;;;;4996183;28;20762;-87
2023/10/18 13:19:23;;;;;;;19.02;17.23;;;10.90;1.00;;;;;;4996483;28;20845;-87
2023/10/18 13:21:50;;;;;;;19.63;17.65;;;10.70;1.00;;;;;;4978676;28;20406;-87
2023/10/18 13:26:53;;;;;;;20.48;18.27;;;10.70;1.00;;;;;;4997808;28;20457;-87
2023/10/18 13:31:45;;;;;;;22.30;18.30;;;12.40;1.00;;;;;;5007746;28;20402;-88
2023/10/18 13:34:18;;;;;;;18.67;16.70;;;10.40;1.00;;;;;;4997045;28;20481;-87
2023/10/18 13:36:53;;;;;;;19.50;17.40;;;10.40;1.00;;;;;;5000329;28;20458;-87
2023/10/18 13:39:22;;;;;;;19.90;17.42;;;10.50;1.00;;;;;;5014949;28;20383;-88
2023/10/18 13:41:49;;;;;;;20.08;17.85;;;10.50;1.00;;;;;;4984752;28;20437;-87
2023/10/18 13:44:19;;;;;;;19.58;17.58;;;10.60;1.00;;;;;;4980232;28;20402;-86
2023/10/18 13:46:50;;;;;;;21.80;19.45;;;10.40;1.00;;;;;;4979396;28;20399;-86
2023/10/18 13:49:17;;;;;;;21.42;18.95;;;10.30;1.00;;;;;;4998356;28;20461;-87
2023/10/18 13:51:43;;;;;;;22.92;19.63;;;10.50;1.00;;;;;;4996062;28;20402;-86
2023/10/18 13:54:08;;;;;;;21.38;19.02;;;10.20;1.00;;;;;;4978517;28;20490;-87
2023/10/18 13:56:37;;;;;;;23.85;19.90;;;10.10;1.00;;;;;;4979254;28;20407;-87
2023/10/18 13:59:03;;;;;;;21.70;19.40;;;10.10;1.00;;;;;;4995958;28;20929;-87
2023/10/18 14:01:28;;;;;;;21.27;19.00;;;10.10;1.00;;;;;;4980233;28;20395;-87
2023/10/18 14:03:55;;;;;;;23.57;21.07;;;10.30;1.00;;;;;;4978442;28;20433;-87
2023/10/18 14:06:21;;;;;;;20.85;18.65;;;10.30;1.00;;;;;;4987891;28;20426;-86
2023/10/18 14:08:47;;;;;;;27.63;22.23;;;9.50;1.00;;;;;;5001487;28;20402;-87
2023/10/18 14:11:14;;;;;;;27.80;25.00;;;10.30;1.00;;;;;;5001861;28;20418;-88
2023/10/18 14:13:43;;;;;;;26.97;23.50;;;10.40;1.00;;;;;;4990753;28;20469;-88
2023/10/18 14:16:12;;;;;;;26.25;23.45;;;10.40;1.00;;;;;;4978967;28;20398;-87
2023/10/18 14:18:42;;;;;;;26.38;23.67;;;10.50;1.00;;;;;;4986266;28;20391;-87